sensor_id;sensor_type;location;lat;lon;timestamp;P1;durP1;ratioP1;P2;durP2;ratioP2
5217;SDS011;26539;51.064;6.346;2023-12-20T00:01:46;22.83;;;16.13;;
5217;SDS011;26539;51.064;6.346;2023-12-20T00:04:12;25.43;;;17.80;;
5217;SDS011;26539;51.064;6.346;2023-12-20T00:06:37;24.00;;;16.43;;
5217;SDS011;26539;51.064;6.346;2023-12-20T00:09:03;25.13;;;16.87;;
5217;SDS011;26539;51.064;6.346;2023-12-20T00:11:28;26.90;;;18.50;;
5217;SDS011;26539;51.064;6.346;2023-12-20T00:13:54;25.00;;;17.87;;
5217;SDS011;26539;51.064;6.346;2023-12-20T00:16:19;26.73;;;16.67;;
5217;SDS011;26539;51.064;6.346;2023-12-20T00:18:45;27.40;;;18.10;;
5217;SDS011;26539;51.064;6.346;2023-12-20T00:21:10;26.20;;;15.93;;
5217;SDS011;26539;51.064;6.346;2023-12-20T00:23:36;25.60;;;15.40;;
5217;SDS011;26539;51.064;6.346;2023-12-20T00:26:02;22.70;;;16.80;;
5217;SDS011;26539;51.064;6.346;2023-12-20T00:28:27;22.90;;;15.60;;
5217;SDS011;26539;51.064;6.346;2023-12-20T00:30:53;19.80;;;12.97;;
5217;SDS011;26539;51.064;6.346;2023-12-20T00:33:18;23.70;;;15.17;;
5217;SDS011;26539;51.064;6.346;2023-12-20T00:35:44;31.70;;;14.67;;
5217;SDS011;26539;51.064;6.346;2023-12-20T00:38:09;21.33;;;15.03;;
5217;SDS011;26539;51.064;6.346;2023-12-20T00:40:36;22.23;;;13.73;;
5217;SDS011;26539;51.064;6.346;2023-12-20T00:43:01;23.73;;;15.07;;
5217;SDS011;26539;51.064;6.346;2023-12-20T00:45:27;23.23;;;15.63;;
5217;SDS011;26539;51.064;6.346;2023-12-20T00:47:52;22.87;;;14.30;;
5217;SDS011;26539;51.064;6.346;2023-12-20T00:50:18;27.77;;;16.00;;
5217;SDS011;26539;51.064;6.346;2023-12-20T00:52:44;22.73;;;14.50;;
5217;SDS011;26539;51.064;6.346;2023-12-20T00:55:09;23.60;;;15.43;;
5217;SDS011;26539;51.064;6.346;2023-12-20T00:57:34;23.47;;;14.63;;
5217;SDS011;26539;51.064;6.346;2023-12-20T01:00:00;21.20;;;13.97;;
5217;SDS011;26539;51.064;6.346;2023-12-20T01:02:26;23.40;;;12.03;;
5217;SDS011;26539;51.064;6.346;2023-12-20T01:04:51;21.13;;;12.40;;
5217;SDS011;26539;51.064;6.346;2023-12-20T01:07:17;19.73;;;10.57;;
5217;SDS011;26539;51.064;6.346;2023-12-20T01:09:42;19.90;;;10.73;;
5217;SDS011;26539;51.064;6.346;2023-12-20T01:12:08;14.97;;;9.20;;
5217;SDS011;26539;51.064;6.346;2023-12-20T01:14:33;17.13;;;10.40;;
5217;SDS011;26539;51.064;6.346;2023-12-20T01:16:59;17.77;;;9.20;;
5217;SDS011;26539;51.064;6.346;2023-12-20T01:19:24;15.60;;;8.20;;
5217;SDS011;26539;51.064;6.346;2023-12-20T01:21:50;20.67;;;7.87;;
5217;SDS011;26539;51.064;6.346;2023-12-20T01:24:15;12.70;;;7.50;;
5217;SDS011;26539;51.064;6.346;2023-12-20T01:26:41;17.90;;;6.73;;
5217;SDS011;26539;51.064;6.346;2023-12-20T01:29:07;11.57;;;5.27;;
5217;SDS011;26539;51.064;6.346;2023-12-20T01:31:32;17.47;;;5.90;;
5217;SDS011;26539;51.064;6.346;2023-12-20T01:33:58;16.70;;;4.93;;
5217;SDS011;26539;51.064;6.346;2023-12-20T01:36:23;11.70;;;4.30;;
5217;SDS011;26539;51.064;6.346;2023-12-20T01:38:49;14.37;;;5.20;;
5217;SDS011;26539;51.064;6.346;2023-12-20T01:41:14;11.80;;;4.80;;
5217;SDS011;26539;51.064;6.346;2023-12-20T01:43:40;8.30;;;3.77;;
5217;SDS011;26539;51.064;6.346;2023-12-20T01:46:05;9.77;;;3.50;;
5217;SDS011;26539;51.064;6.346;2023-12-20T01:48:32;10.13;;;3.33;;
5217;SDS011;26539;51.064;6.346;2023-12-20T01:50:58;11.30;;;4.43;;
5217;SDS011;26539;51.064;6.346;2023-12-20T01:53:25;18.80;;;4.20;;
5217;SDS011;26539;51.064;6.346;2023-12-20T01:55:54;14.35;;;4.05;;
5217;SDS011;26539;51.064;6.346;2023-12-20T01:58:21;10.80;;;3.88;;
5217;SDS011;26539;51.064;6.346;2023-12-20T02:00:48;15.73;;;3.50;;
5217;SDS011;26539;51.064;6.346;2023-12-20T02:03:13;19.23;;;4.47;;
5217;SDS011;26539;51.064;6.346;2023-12-20T02:05:39;17.33;;;4.93;;
5217;SDS011;26539;51.064;6.346;2023-12-20T02:08:05;11.00;;;4.03;;
5217;SDS011;26539;51.064;6.346;2023-12-20T02:10:31;14.93;;;5.20;;
5217;SDS011;26539;51.064;6.346;2023-12-20T02:12:57;11.17;;;4.20;;
5217;SDS011;26539;51.064;6.346;2023-12-20T02:15:23;13.60;;;4.47;;
5217;SDS011;26539;51.064;6.346;2023-12-20T02:17:49;12.20;;;3.10;;
5217;SDS011;26539;51.064;6.346;2023-12-20T02:20:15;16.08;;;4.47;;
5217;SDS011;26539;51.064;6.346;2023-12-20T02:22:41;9.80;;;3.83;;
5217;SDS011;26539;51.064;6.346;2023-12-20T02:25:06;8.27;;;2.47;;
5217;SDS011;26539;51.064;6.346;2023-12-20T02:27:32;12.37;;;3.37;;
5217;SDS011;26539;51.064;6.346;2023-12-20T02:29:58;14.10;;;3.17;;
5217;SDS011;26539;51.064;6.346;2023-12-20T02:32:24;9.30;;;2.77;;
5217;SDS011;26539;51.064;6.346;2023-12-20T02:34:53;10.18;;;3.10;;
5217;SDS011;26539;51.064;6.346;2023-12-20T02:37:19;7.80;;;2.80;;
5217;SDS011;26539;51.064;6.346;2023-12-20T02:39:45;13.13;;;3.50;;
5217;SDS011;26539;51.064;6.346;2023-12-20T02:42:10;9.73;;;2.77;;
5217;SDS011;26539;51.064;6.346;2023-12-20T02:44:36;10.30;;;3.60;;
5217;SDS011;26539;51.064;6.346;2023-12-20T02:47:01;13.63;;;3.60;;
5217;SDS011;26539;51.064;6.346;2023-12-20T02:49:27;13.27;;;2.70;;
5217;SDS011;26539;51.064;6.346;2023-12-20T02:51:52;10.03;;;3.30;;
5217;SDS011;26539;51.064;6.346;2023-12-20T02:54:18;8.60;;;3.20;;
5217;SDS011;26539;51.064;6.346;2023-12-20T02:56:43;11.87;;;4.30;;
5217;SDS011;26539;51.064;6.346;2023-12-20T02:59:09;10.40;;;3.30;;
5217;SDS011;26539;51.064;6.346;2023-12-20T03:01:34;8.83;;;3.20;;
5217;SDS011;26539;51.064;6.346;2023-12-20T03:04:00;9.67;;;4.07;;
5217;SDS011;26539;51.064;6.346;2023-12-20T03:06:26;15.33;;;3.30;;
5217;SDS011;26539;51.064;6.346;2023-12-20T03:08:52;20.97;;;3.73;;
5217;SDS011;26539;51.064;6.346;2023-12-20T03:11:17;8.10;;;3.10;;
5217;SDS011;26539;51.064;6.346;2023-12-20T03:13:43;17.93;;;3.70;;
5217;SDS011;26539;51.064;6.346;2023-12-20T03:16:09;23.60;;;5.10;;
5217;SDS011;26539;51.064;6.346;2023-12-20T03:18:35;14.27;;;4.28;;
5217;SDS011;26539;51.064;6.346;2023-12-20T03:21:00;7.53;;;3.83;;
5217;SDS011;26539;51.064;6.346;2023-12-20T03:23:26;17.67;;;3.97;;
5217;SDS011;26539;51.064;6.346;2023-12-20T03:25:52;13.30;;;5.00;;
5217;SDS011;26539;51.064;6.346;2023-12-20T03:28:18;8.57;;;4.30;;
5217;SDS011;26539;51.064;6.346;2023-12-20T03:30:44;18.48;;;5.10;;
5217;SDS011;26539;51.064;6.346;2023-12-20T03:33:09;16.20;;;4.73;;
5217;SDS011;26539;51.064;6.346;2023-12-20T03:35:35;9.97;;;4.80;;
5217;SDS011;26539;51.064;6.346;2023-12-20T03:38:00;22.33;;;4.87;;
5217;SDS011;26539;51.064;6.346;2023-12-20T03:40:26;13.93;;;4.43;;
5217;SDS011;26539;51.064;6.346;2023-12-20T03:42:51;16.90;;;6.77;;
5217;SDS011;26539;51.064;6.346;2023-12-20T03:45:17;15.20;;;4.87;;
5217;SDS011;26539;51.064;6.346;2023-12-20T03:47:42;13.50;;;4.60;;
5217;SDS011;26539;51.064;6.346;2023-12-20T03:50:08;12.77;;;5.20;;
5217;SDS011;26539;51.064;6.346;2023-12-20T03:52:33;18.33;;;5.80;;
5217;SDS011;26539;51.064;6.346;2023-12-20T03:54:59;26.10;;;7.33;;
5217;SDS011;26539;51.064;6.346;2023-12-20T03:57:24;16.47;;;6.53;;
5217;SDS011;26539;51.064;6.346;2023-12-20T03:59:50;12.60;;;5.80;;
5217;SDS011;26539;51.064;6.346;2023-12-20T04:02:15;12.20;;;5.77;;
5217;SDS011;26539;51.064;6.346;2023-12-20T04:04:42;13.95;;;6.80;;
5217;SDS011;26539;51.064;6.346;2023-12-20T04:07:08;26.60;;;6.73;;
5217;SDS011;26539;51.064;6.346;2023-12-20T04:09:34;18.00;;;5.00;;
5217;SDS011;26539;51.064;6.346;2023-12-20T04:11:59;16.57;;;6.07;;
5217;SDS011;26539;51.064;6.346;2023-12-20T04:14:25;17.07;;;6.17;;
5217;SDS011;26539;51.064;6.346;2023-12-20T04:16:50;18.97;;;6.17;;
5217;SDS011;26539;51.064;6.346;2023-12-20T04:19:16;19.40;;;5.70;;
5217;SDS011;26539;51.064;6.346;2023-12-20T04:21:41;15.07;;;4.93;;
5217;SDS011;26539;51.064;6.346;2023-12-20T04:24:07;14.73;;;4.80;;
5217;SDS011;26539;51.064;6.346;2023-12-20T04:26:33;16.58;;;5.60;;
5217;SDS011;26539;51.064;6.346;2023-12-20T04:28:58;10.67;;;5.50;;
5217;SDS011;26539;51.064;6.346;2023-12-20T04:31:24;9.33;;;5.33;;
5217;SDS011;26539;51.064;6.346;2023-12-20T04:33:49;13.30;;;6.07;;
5217;SDS011;26539;51.064;6.346;2023-12-20T04:36:15;14.37;;;5.30;;
5217;SDS011;26539;51.064;6.346;2023-12-20T04:38:40;12.97;;;4.93;;
5217;SDS011;26539;51.064;6.346;2023-12-20T04:41:06;15.40;;;6.17;;
5217;SDS011;26539;51.064;6.346;2023-12-20T04:43:31;21.27;;;6.10;;
5217;SDS011;26539;51.064;6.346;2023-12-20T04:45:57;15.90;;;5.47;;
5217;SDS011;26539;51.064;6.346;2023-12-20T04:48:22;13.20;;;4.67;;
5217;SDS011;26539;51.064;6.346;2023-12-20T04:50:48;20.10;;;6.33;;
5217;SDS011;26539;51.064;6.346;2023-12-20T04:53:13;14.63;;;5.47;;
5217;SDS011;26539;51.064;6.346;2023-12-20T04:55:39;13.07;;;5.90;;
5217;SDS011;26539;51.064;6.346;2023-12-20T04:58:04;15.30;;;5.53;;
5217;SDS011;26539;51.064;6.346;2023-12-20T05:00:30;18.87;;;4.77;;
5217;SDS011;26539;51.064;6.346;2023-12-20T05:02:56;16.65;;;5.28;;
5217;SDS011;26539;51.064;6.346;2023-12-20T05:05:21;16.00;;;4.90;;
5217;SDS011;26539;51.064;6.346;2023-12-20T05:07:47;8.87;;;4.97;;
5217;SDS011;26539;51.064;6.346;2023-12-20T05:10:12;14.60;;;5.27;;
5217;SDS011;26539;51.064;6.346;2023-12-20T05:12:38;18.77;;;5.13;;
5217;SDS011;26539;51.064;6.346;2023-12-20T05:15:05;11.13;;;4.83;;
5217;SDS011;26539;51.064;6.346;2023-12-20T05:17:31;12.52;;;4.85;;
5217;SDS011;26539;51.064;6.346;2023-12-20T05:19:56;10.67;;;5.13;;
5217;SDS011;26539;51.064;6.346;2023-12-20T05:22:22;13.97;;;5.07;;
5217;SDS011;26539;51.064;6.346;2023-12-20T05:24:47;16.80;;;5.70;;
5217;SDS011;26539;51.064;6.346;2023-12-20T05:27:13;24.60;;;6.10;;
5217;SDS011;26539;51.064;6.346;2023-12-20T05:29:38;17.80;;;5.23;;
5217;SDS011;26539;51.064;6.346;2023-12-20T05:32:04;16.63;;;5.50;;
5217;SDS011;26539;51.064;6.346;2023-12-20T05:34:30;15.40;;;4.33;;
5217;SDS011;26539;51.064;6.346;2023-12-20T05:36:56;16.50;;;5.65;;
5217;SDS011;26539;51.064;6.346;2023-12-20T05:39:22;14.90;;;6.30;;
5217;SDS011;26539;51.064;6.346;2023-12-20T05:41:48;13.17;;;5.30;;
5217;SDS011;26539;51.064;6.346;2023-12-20T05:44:13;18.20;;;4.57;;
5217;SDS011;26539;51.064;6.346;2023-12-20T05:46:39;12.50;;;4.10;;
5217;SDS011;26539;51.064;6.346;2023-12-20T05:49:05;17.93;;;4.57;;
5217;SDS011;26539;51.064;6.346;2023-12-20T05:51:30;14.23;;;4.60;;
5217;SDS011;26539;51.064;6.346;2023-12-20T05:53:56;17.13;;;5.47;;
5217;SDS011;26539;51.064;6.346;2023-12-20T05:56:21;14.23;;;3.87;;
5217;SDS011;26539;51.064;6.346;2023-12-20T05:58:47;19.40;;;4.90;;
5217;SDS011;26539;51.064;6.346;2023-12-20T06:01:14;14.13;;;4.67;;
5217;SDS011;26539;51.064;6.346;2023-12-20T06:03:43;11.02;;;4.07;;
5217;SDS011;26539;51.064;6.346;2023-12-20T06:06:08;13.25;;;4.65;;
5217;SDS011;26539;51.064;6.346;2023-12-20T06:08:34;13.27;;;4.40;;
5217;SDS011;26539;51.064;6.346;2023-12-20T06:11:01;18.40;;;4.40;;
5217;SDS011;26539;51.064;6.346;2023-12-20T06:13:26;18.83;;;3.90;;
5217;SDS011;26539;51.064;6.346;2023-12-20T06:15:52;16.93;;;5.60;;
5217;SDS011;26539;51.064;6.346;2023-12-20T06:18:19;21.17;;;6.70;;
5217;SDS011;26539;51.064;6.346;2023-12-20T06:20:44;20.83;;;5.73;;
5217;SDS011;26539;51.064;6.346;2023-12-20T06:23:10;14.97;;;4.43;;
5217;SDS011;26539;51.064;6.346;2023-12-20T06:25:35;18.17;;;4.60;;
5217;SDS011;26539;51.064;6.346;2023-12-20T06:28:01;14.37;;;5.40;;
5217;SDS011;26539;51.064;6.346;2023-12-20T06:30:26;16.50;;;4.70;;
5217;SDS011;26539;51.064;6.346;2023-12-20T06:32:52;21.30;;;5.13;;
5217;SDS011;26539;51.064;6.346;2023-12-20T06:35:19;18.45;;;4.60;;
5217;SDS011;26539;51.064;6.346;2023-12-20T06:37:45;17.33;;;4.73;;
5217;SDS011;26539;51.064;6.346;2023-12-20T06:40:10;8.40;;;5.07;;
5217;SDS011;26539;51.064;6.346;2023-12-20T06:42:36;20.03;;;6.27;;
5217;SDS011;26539;51.064;6.346;2023-12-20T06:45:02;16.60;;;5.43;;
5217;SDS011;26539;51.064;6.346;2023-12-20T06:47:28;16.83;;;4.63;;
5217;SDS011;26539;51.064;6.346;2023-12-20T06:49:53;11.50;;;4.90;;
5217;SDS011;26539;51.064;6.346;2023-12-20T06:52:19;21.93;;;6.03;;
5217;SDS011;26539;51.064;6.346;2023-12-20T06:54:44;14.07;;;5.60;;
5217;SDS011;26539;51.064;6.346;2023-12-20T06:57:10;14.77;;;5.93;;
5217;SDS011;26539;51.064;6.346;2023-12-20T06:59:39;17.00;;;6.20;;
5217;SDS011;26539;51.064;6.346;2023-12-20T07:02:05;15.68;;;5.72;;
5217;SDS011;26539;51.064;6.346;2023-12-20T07:04:31;22.57;;;6.80;;
5217;SDS011;26539;51.064;6.346;2023-12-20T07:06:56;27.60;;;6.33;;
5217;SDS011;26539;51.064;6.346;2023-12-20T07:09:25;13.43;;;5.80;;
5217;SDS011;26539;51.064;6.346;2023-12-20T07:11:51;15.85;;;6.43;;
5217;SDS011;26539;51.064;6.346;2023-12-20T07:14:16;19.37;;;6.10;;
5217;SDS011;26539;51.064;6.346;2023-12-20T07:16:42;14.90;;;6.07;;
5217;SDS011;26539;51.064;6.346;2023-12-20T07:19:07;20.30;;;6.10;;
5217;SDS011;26539;51.064;6.346;2023-12-20T07:21:33;24.33;;;6.60;;
5217;SDS011;26539;51.064;6.346;2023-12-20T07:23:58;12.13;;;5.17;;
5217;SDS011;26539;51.064;6.346;2023-12-20T07:26:24;13.67;;;4.93;;
5217;SDS011;26539;51.064;6.346;2023-12-20T07:28:49;25.97;;;6.90;;
5217;SDS011;26539;51.064;6.346;2023-12-20T07:31:15;26.77;;;6.30;;
5217;SDS011;26539;51.064;6.346;2023-12-20T07:33:42;25.45;;;6.20;;
5217;SDS011;26539;51.064;6.346;2023-12-20T07:36:07;22.17;;;7.03;;
5217;SDS011;26539;51.064;6.346;2023-12-20T07:38:33;18.73;;;6.03;;
5217;SDS011;26539;51.064;6.346;2023-12-20T07:40:58;14.90;;;5.83;;
5217;SDS011;26539;51.064;6.346;2023-12-20T07:43:24;19.23;;;5.90;;
5217;SDS011;26539;51.064;6.346;2023-12-20T07:45:50;15.30;;;5.90;;
5217;SDS011;26539;51.064;6.346;2023-12-20T07:48:15;17.67;;;5.97;;
5217;SDS011;26539;51.064;6.346;2023-12-20T07:50:41;18.13;;;6.67;;
5217;SDS011;26539;51.064;6.346;2023-12-20T07:53:07;14.47;;;6.40;;
5217;SDS011;26539;51.064;6.346;2023-12-20T07:55:33;14.00;;;4.80;;
5217;SDS011;26539;51.064;6.346;2023-12-20T07:57:59;18.98;;;6.90;;
5217;SDS011;26539;51.064;6.346;2023-12-20T08:00:25;24.53;;;5.80;;
5217;SDS011;26539;51.064;6.346;2023-12-20T08:02:51;20.90;;;5.63;;
5217;SDS011;26539;51.064;6.346;2023-12-20T08:05:16;23.93;;;6.07;;
5217;SDS011;26539;51.064;6.346;2023-12-20T08:07:42;20.83;;;5.63;;
5217;SDS011;26539;51.064;6.346;2023-12-20T08:10:07;19.37;;;6.50;;
5217;SDS011;26539;51.064;6.346;2023-12-20T08:12:33;12.00;;;4.97;;
5217;SDS011;26539;51.064;6.346;2023-12-20T08:14:59;14.67;;;5.40;;
5217;SDS011;26539;51.064;6.346;2023-12-20T08:17:25;14.33;;;4.90;;
5217;SDS011;26539;51.064;6.346;2023-12-20T08:19:51;12.67;;;4.90;;
5217;SDS011;26539;51.064;6.346;2023-12-20T08:22:16;19.13;;;5.40;;
5217;SDS011;26539;51.064;6.346;2023-12-20T08:24:42;15.10;;;5.17;;
5217;SDS011;26539;51.064;6.346;2023-12-20T08:27:07;13.67;;;4.10;;
5217;SDS011;26539;51.064;6.346;2023-12-20T08:29:34;15.10;;;5.47;;
5217;SDS011;26539;51.064;6.346;2023-12-20T08:32:00;9.17;;;4.10;;
5217;SDS011;26539;51.064;6.346;2023-12-20T08:34:26;14.40;;;4.77;;
5217;SDS011;26539;51.064;6.346;2023-12-20T08:36:51;15.63;;;5.20;;
5217;SDS011;26539;51.064;6.346;2023-12-20T08:39:17;18.27;;;5.40;;
5217;SDS011;26539;51.064;6.346;2023-12-20T08:41:42;14.33;;;6.60;;
5217;SDS011;26539;51.064;6.346;2023-12-20T08:44:08;13.47;;;4.90;;
5217;SDS011;26539;51.064;6.346;2023-12-20T08:46:34;12.87;;;5.60;;
5217;SDS011;26539;51.064;6.346;2023-12-20T08:49:00;17.63;;;5.03;;
5217;SDS011;26539;51.064;6.346;2023-12-20T08:51:26;13.50;;;4.93;;
5217;SDS011;26539;51.064;6.346;2023-12-20T08:53:52;9.73;;;3.70;;
5217;SDS011;26539;51.064;6.346;2023-12-20T08:56:18;16.50;;;5.03;;
5217;SDS011;26539;51.064;6.346;2023-12-20T08:58:44;18.53;;;4.77;;
5217;SDS011;26539;51.064;6.346;2023-12-20T09:01:10;19.50;;;4.83;;
5217;SDS011;26539;51.064;6.346;2023-12-20T09:03:36;11.30;;;5.27;;
5217;SDS011;26539;51.064;6.346;2023-12-20T09:06:01;10.47;;;4.10;;
5217;SDS011;26539;51.064;6.346;2023-12-20T09:08:27;18.83;;;4.23;;
5217;SDS011;26539;51.064;6.346;2023-12-20T09:10:52;12.07;;;5.10;;
5217;SDS011;26539;51.064;6.346;2023-12-20T09:13:18;23.30;;;5.20;;
5217;SDS011;26539;51.064;6.346;2023-12-20T09:15:43;13.20;;;3.80;;
5217;SDS011;26539;51.064;6.346;2023-12-20T09:18:09;16.47;;;5.00;;
5217;SDS011;26539;51.064;6.346;2023-12-20T09:20:35;9.67;;;4.20;;
5217;SDS011;26539;51.064;6.346;2023-12-20T09:23:00;12.63;;;5.23;;
5217;SDS011;26539;51.064;6.346;2023-12-20T09:25:26;15.63;;;4.50;;
5217;SDS011;26539;51.064;6.346;2023-12-20T09:27:52;14.87;;;4.40;;
5217;SDS011;26539;51.064;6.346;2023-12-20T09:30:18;12.50;;;4.40;;
5217;SDS011;26539;51.064;6.346;2023-12-20T09:32:45;18.03;;;4.17;;
5217;SDS011;26539;51.064;6.346;2023-12-20T09:35:10;17.07;;;4.20;;
5217;SDS011;26539;51.064;6.346;2023-12-20T09:37:36;10.70;;;3.80;;
5217;SDS011;26539;51.064;6.346;2023-12-20T09:40:01;16.63;;;4.43;;
5217;SDS011;26539;51.064;6.346;2023-12-20T09:45:19;16.27;;;4.10;;
5217;SDS011;26539;51.064;6.346;2023-12-20T09:47:46;12.97;;;3.77;;
5217;SDS011;26539;51.064;6.346;2023-12-20T09:50:13;9.00;;;4.47;;
5217;SDS011;26539;51.064;6.346;2023-12-20T09:52:39;6.57;;;3.70;;
5217;SDS011;26539;51.064;6.346;2023-12-20T09:55:07;12.37;;;3.63;;
5217;SDS011;26539;51.064;6.346;2023-12-20T09:57:33;13.50;;;4.33;;
5217;SDS011;26539;51.064;6.346;2023-12-20T09:59:58;14.13;;;3.67;;
5217;SDS011;26539;51.064;6.346;2023-12-20T10:02:25;10.73;;;3.10;;
5217;SDS011;26539;51.064;6.346;2023-12-20T10:04:54;14.47;;;3.90;;
5217;SDS011;26539;51.064;6.346;2023-12-20T10:07:21;15.07;;;3.40;;
5217;SDS011;26539;51.064;6.346;2023-12-20T10:09:47;15.37;;;4.10;;
5217;SDS011;26539;51.064;6.346;2023-12-20T10:12:13;14.20;;;4.67;;
5217;SDS011;26539;51.064;6.346;2023-12-20T10:14:39;15.73;;;4.13;;
5217;SDS011;26539;51.064;6.346;2023-12-20T10:17:05;13.30;;;3.70;;
5217;SDS011;26539;51.064;6.346;2023-12-20T10:19:31;10.57;;;3.80;;
5217;SDS011;26539;51.064;6.346;2023-12-20T10:22:00;10.40;;;4.10;;
5217;SDS011;26539;51.064;6.346;2023-12-20T10:24:28;21.63;;;5.30;;
5217;SDS011;26539;51.064;6.346;2023-12-20T10:27:08;13.50;;;4.63;;
5217;SDS011;26539;51.064;6.346;2023-12-20T10:29:36;11.30;;;4.40;;
5217;SDS011;26539;51.064;6.346;2023-12-20T10:34:51;9.70;;;3.10;;
5217;SDS011;26539;51.064;6.346;2023-12-20T10:37:18;18.83;;;4.80;;
5217;SDS011;26539;51.064;6.346;2023-12-20T10:39:44;13.60;;;3.70;;
5217;SDS011;26539;51.064;6.346;2023-12-20T10:42:15;15.53;;;4.40;;
5217;SDS011;26539;51.064;6.346;2023-12-20T10:44:42;13.30;;;4.50;;
5217;SDS011;26539;51.064;6.346;2023-12-20T10:47:08;13.90;;;3.57;;
5217;SDS011;26539;51.064;6.346;2023-12-20T10:49:36;11.63;;;3.50;;
5217;SDS011;26539;51.064;6.346;2023-12-20T10:52:04;14.50;;;3.97;;
5217;SDS011;26539;51.064;6.346;2023-12-20T10:54:31;14.27;;;4.17;;
5217;SDS011;26539;51.064;6.346;2023-12-20T10:56:58;21.67;;;3.60;;
5217;SDS011;26539;51.064;6.346;2023-12-20T10:59:24;8.50;;;4.17;;
5217;SDS011;26539;51.064;6.346;2023-12-20T11:01:52;15.83;;;4.03;;
5217;SDS011;26539;51.064;6.346;2023-12-20T11:04:25;10.67;;;4.20;;
5217;SDS011;26539;51.064;6.346;2023-12-20T11:07:01;26.63;;;6.13;;
5217;SDS011;26539;51.064;6.346;2023-12-20T11:09:38;10.60;;;3.37;;
5217;SDS011;26539;51.064;6.346;2023-12-20T11:12:10;16.60;;;3.43;;
5217;SDS011;26539;51.064;6.346;2023-12-20T11:14:46;9.57;;;3.47;;
5217;SDS011;26539;51.064;6.346;2023-12-20T11:17:14;9.50;;;4.37;;
5217;SDS011;26539;51.064;6.346;2023-12-20T11:22:26;17.60;;;3.90;;
5217;SDS011;26539;51.064;6.346;2023-12-20T11:24:59;9.77;;;4.20;;
5217;SDS011;26539;51.064;6.346;2023-12-20T11:27:35;14.33;;;4.77;;
5217;SDS011;26539;51.064;6.346;2023-12-20T11:30:10;12.43;;;4.47;;
5217;SDS011;26539;51.064;6.346;2023-12-20T11:32:36;16.53;;;4.00;;
5217;SDS011;26539;51.064;6.346;2023-12-20T11:37:37;13.57;;;3.70;;
5217;SDS011;26539;51.064;6.346;2023-12-20T11:40:08;12.90;;;4.20;;
5217;SDS011;26539;51.064;6.346;2023-12-20T11:42:39;17.40;;;4.23;;
5217;SDS011;26539;51.064;6.346;2023-12-20T11:45:09;13.13;;;3.73;;
5217;SDS011;26539;51.064;6.346;2023-12-20T11:47:35;17.10;;;4.83;;
5217;SDS011;26539;51.064;6.346;2023-12-20T11:50:01;10.83;;;3.90;;
5217;SDS011;26539;51.064;6.346;2023-12-20T11:52:29;14.93;;;4.03;;
5217;SDS011;26539;51.064;6.346;2023-12-20T11:54:55;24.47;;;4.83;;
5217;SDS011;26539;51.064;6.346;2023-12-20T11:57:20;14.63;;;5.30;;
5217;SDS011;26539;51.064;6.346;2023-12-20T11:59:46;9.70;;;4.43;;
5217;SDS011;26539;51.064;6.346;2023-12-20T12:02:12;15.73;;;4.10;;
5217;SDS011;26539;51.064;6.346;2023-12-20T12:04:37;12.13;;;4.20;;
5217;SDS011;26539;51.064;6.346;2023-12-20T12:07:03;20.33;;;4.80;;
5217;SDS011;26539;51.064;6.346;2023-12-20T12:09:29;11.00;;;3.57;;
5217;SDS011;26539;51.064;6.346;2023-12-20T12:11:54;15.63;;;4.53;;
5217;SDS011;26539;51.064;6.346;2023-12-20T12:14:20;14.90;;;5.57;;
5217;SDS011;26539;51.064;6.346;2023-12-20T12:16:46;14.07;;;4.67;;
5217;SDS011;26539;51.064;6.346;2023-12-20T12:19:21;14.90;;;4.27;;
5217;SDS011;26539;51.064;6.346;2023-12-20T12:21:48;14.53;;;4.73;;
5217;SDS011;26539;51.064;6.346;2023-12-20T12:24:14;9.10;;;4.83;;
5217;SDS011;26539;51.064;6.346;2023-12-20T12:26:39;18.10;;;5.47;;
5217;SDS011;26539;51.064;6.346;2023-12-20T12:29:08;10.43;;;4.40;;
5217;SDS011;26539;51.064;6.346;2023-12-20T12:31:34;13.27;;;4.80;;
5217;SDS011;26539;51.064;6.346;2023-12-20T12:34:00;18.07;;;4.30;;
5217;SDS011;26539;51.064;6.346;2023-12-20T12:36:26;14.03;;;4.73;;
5217;SDS011;26539;51.064;6.346;2023-12-20T12:38:53;13.37;;;4.53;;
5217;SDS011;26539;51.064;6.346;2023-12-20T12:41:22;10.10;;;4.57;;
5217;SDS011;26539;51.064;6.346;2023-12-20T12:43:48;17.10;;;5.60;;
5217;SDS011;26539;51.064;6.346;2023-12-20T12:46:13;13.87;;;4.87;;
5217;SDS011;26539;51.064;6.346;2023-12-20T12:48:39;16.37;;;4.70;;
5217;SDS011;26539;51.064;6.346;2023-12-20T12:51:05;12.50;;;5.70;;
5217;SDS011;26539;51.064;6.346;2023-12-20T12:53:32;13.17;;;4.63;;
5217;SDS011;26539;51.064;6.346;2023-12-20T12:55:57;13.77;;;5.23;;
5217;SDS011;26539;51.064;6.346;2023-12-20T12:58:23;12.83;;;5.00;;
5217;SDS011;26539;51.064;6.346;2023-12-20T13:00:50;16.03;;;5.27;;
5217;SDS011;26539;51.064;6.346;2023-12-20T13:03:15;16.43;;;4.80;;
5217;SDS011;26539;51.064;6.346;2023-12-20T13:05:41;11.20;;;5.60;;
5217;SDS011;26539;51.064;6.346;2023-12-20T13:08:07;18.00;;;5.20;;
5217;SDS011;26539;51.064;6.346;2023-12-20T13:10:32;12.33;;;5.20;;
5217;SDS011;26539;51.064;6.346;2023-12-20T13:12:58;17.90;;;5.57;;
5217;SDS011;26539;51.064;6.346;2023-12-20T13:15:23;15.90;;;5.60;;
5217;SDS011;26539;51.064;6.346;2023-12-20T13:17:49;10.40;;;5.00;;
5217;SDS011;26539;51.064;6.346;2023-12-20T13:20:15;9.40;;;4.17;;
5217;SDS011;26539;51.064;6.346;2023-12-20T13:22:41;15.97;;;4.37;;
5217;SDS011;26539;51.064;6.346;2023-12-20T13:25:06;18.83;;;5.00;;
5217;SDS011;26539;51.064;6.346;2023-12-20T13:27:32;17.90;;;5.07;;
5217;SDS011;26539;51.064;6.346;2023-12-20T13:29:58;17.33;;;5.50;;
5217;SDS011;26539;51.064;6.346;2023-12-20T13:32:23;14.47;;;5.30;;
5217;SDS011;26539;51.064;6.346;2023-12-20T13:34:49;10.27;;;4.87;;
5217;SDS011;26539;51.064;6.346;2023-12-20T13:37:15;8.53;;;4.50;;
5217;SDS011;26539;51.064;6.346;2023-12-20T13:39:41;13.87;;;4.47;;
5217;SDS011;26539;51.064;6.346;2023-12-20T13:42:06;14.03;;;5.63;;
5217;SDS011;26539;51.064;6.346;2023-12-20T13:44:32;14.50;;;4.90;;
5217;SDS011;26539;51.064;6.346;2023-12-20T13:46:58;12.87;;;4.63;;
5217;SDS011;26539;51.064;6.346;2023-12-20T13:49:23;10.10;;;5.90;;
5217;SDS011;26539;51.064;6.346;2023-12-20T13:51:50;10.20;;;4.67;;
5217;SDS011;26539;51.064;6.346;2023-12-20T13:54:16;13.87;;;4.60;;
5217;SDS011;26539;51.064;6.346;2023-12-20T13:56:45;13.63;;;5.30;;
5217;SDS011;26539;51.064;6.346;2023-12-20T13:59:10;12.63;;;5.83;;
5217;SDS011;26539;51.064;6.346;2023-12-20T14:01:37;9.03;;;4.90;;
5217;SDS011;26539;51.064;6.346;2023-12-20T14:04:03;15.87;;;5.27;;
5217;SDS011;26539;51.064;6.346;2023-12-20T14:06:28;12.30;;;5.90;;
5217;SDS011;26539;51.064;6.346;2023-12-20T14:08:54;19.67;;;5.83;;
5217;SDS011;26539;51.064;6.346;2023-12-20T14:11:20;9.60;;;4.87;;
5217;SDS011;26539;51.064;6.346;2023-12-20T14:13:45;12.13;;;4.93;;
5217;SDS011;26539;51.064;6.346;2023-12-20T14:16:11;10.43;;;4.87;;
5217;SDS011;26539;51.064;6.346;2023-12-20T14:18:37;9.00;;;5.40;;
5217;SDS011;26539;51.064;6.346;2023-12-20T14:21:05;14.77;;;5.57;;
5217;SDS011;26539;51.064;6.346;2023-12-20T14:23:31;15.33;;;5.40;;
5217;SDS011;26539;51.064;6.346;2023-12-20T14:25:58;11.77;;;5.40;;
5217;SDS011;26539;51.064;6.346;2023-12-20T14:28:24;15.70;;;5.77;;
5217;SDS011;26539;51.064;6.346;2023-12-20T14:30:50;24.03;;;5.83;;
5217;SDS011;26539;51.064;6.346;2023-12-20T14:33:16;12.57;;;5.00;;
5217;SDS011;26539;51.064;6.346;2023-12-20T14:35:41;13.10;;;4.83;;
5217;SDS011;26539;51.064;6.346;2023-12-20T14:38:09;17.43;;;4.57;;
5217;SDS011;26539;51.064;6.346;2023-12-20T14:40:34;14.93;;;5.20;;
5217;SDS011;26539;51.064;6.346;2023-12-20T14:43:00;14.97;;;4.97;;
5217;SDS011;26539;51.064;6.346;2023-12-20T14:45:26;8.40;;;4.83;;
5217;SDS011;26539;51.064;6.346;2023-12-20T14:47:52;17.20;;;5.30;;
5217;SDS011;26539;51.064;6.346;2023-12-20T14:50:18;13.40;;;6.40;;
5217;SDS011;26539;51.064;6.346;2023-12-20T14:52:43;18.43;;;5.13;;